Time;durP1;ratioP1;P1;durP2;ratioP2;P2;SDS_P1;SDS_P2;PMS_P1;PMS_P2;Temp;Humidity;BMP_temperature;BMP_pressure;BME280_temperature;BME280_humidity;BME280_pressure;Samples;Min_cycle;Max_cycle;Signal;HPM_P1;HPM_P2
2022/12/25 06:00:26;;;;;;;3.20;2.90;;;10.60;97.20;;;;;;1708335;29;20190;-71
2022/12/25 06:01:18;;;;;;;2.92;2.72;;;10.60;97.20;;;;;;1708312;29;20209;-70
2022/12/25 06:02:10;;;;;;;3.22;3.03;;;10.60;97.20;;;;;;1708440;29;20203;-71
2022/12/25 06:03:01;;;;;;;2.78;2.58;;;10.60;97.20;;;;;;1708211;29;20206;-70
2022/12/25 06:03:53;;;;;;;2.63;2.42;;;10.60;97.20;;;;;;1708424;29;20669;-71
2022/12/25 06:04:44;;;;;;;3.20;3.00;;;10.60;97.20;;;;;;1708233;29;20342;-71
2022/12/25 06:05:38;;;;;;;3.23;3.03;;;10.60;97.20;;;;;;1708285;29;20262;-70
2022/12/25 06:06:28;;;;;;;3.00;2.75;;;10.60;97.20;;;;;;1708329;29;20203;-70
2022/12/25 06:07:20;;;;;;;4.00;2.90;;;10.60;97.20;;;;;;1707551;29;20207;-70
2022/12/25 06:08:11;;;;;;;3.70;3.03;;;10.60;97.20;;;;;;1708129;29;20217;-70
2022/12/25 06:09:02;;;;;;;3.10;2.80;;;10.50;97.20;;;;;;1708328;29;20208;-70
2022/12/25 06:09:53;;;;;;;3.65;3.20;;;10.50;97.20;;;;;;1708264;29;20229;-71
2022/12/25 06:10:45;;;;;;;3.03;2.83;;;10.50;97.20;;;;;;1708092;29;20222;-70
2022/12/25 06:11:36;;;;;;;2.85;2.58;;;10.50;97.20;;;;;;1708302;29;20210;-70
2022/12/25 06:12:27;;;;;;;2.57;2.37;;;10.50;97.20;;;;;;1708348;29;20213;-70
2022/12/25 06:13:18;;;;;;;2.67;2.45;;;10.50;97.20;;;;;;1708108;29;20206;-71
2022/12/25 06:14:11;;;;;;;2.90;2.70;;;10.50;97.20;;;;;;1708361;29;20206;-71
2022/12/25 06:15:03;;;;;;;3.05;2.78;;;10.50;97.20;;;;;;1708230;29;20213;-71
2022/12/25 06:15:55;;;;;;;3.28;2.97;;;10.50;97.20;;;;;;1708380;29;20214;-71
2022/12/25 06:16:50;;;;;;;3.65;2.67;;;10.50;97.20;;;;;;1707363;29;20206;-71
2022/12/25 06:17:41;;;;;;;4.28;3.22;;;10.50;97.20;;;;;;1708136;29;20211;-71
2022/12/25 06:18:35;;;;;;;3.03;2.83;;;10.50;97.20;;;;;;1708233;29;20216;-70
2022/12/25 06:19:26;;;;;;;2.95;2.65;;;10.40;97.20;;;;;;1708207;29;20233;-70
2022/12/25 06:20:18;;;;;;;2.83;2.63;;;10.50;97.20;;;;;;1708170;29;20206;-70
2022/12/25 06:21:11;;;;;;;2.33;2.13;;;10.50;97.20;;;;;;1708140;29;20206;-70
2022/12/25 06:22:03;;;;;;;2.83;2.63;;;10.40;97.20;;;;;;1708149;29;20724;-70
2022/12/25 06:22:53;;;;;;;4.25;2.63;;;10.40;97.20;;;;;;1708362;29;20210;-70
2022/12/25 06:23:45;;;;;;;2.70;2.50;;;10.40;97.20;;;;;;1708248;29;20674;-70
2022/12/25 06:24:36;;;;;;;2.80;2.60;;;10.40;97.20;;;;;;1708251;29;20214;-70
2022/12/25 06:25:28;;;;;;;2.50;2.30;;;10.40;97.20;;;;;;1708141;29;20202;-70
2022/12/25 06:26:19;;;;;;;2.60;2.40;;;10.40;97.20;;;;;;1708163;29;20669;-70
2022/12/25 06:27:11;;;;;;;2.67;2.47;;;10.50;97.20;;;;;;1707571;29;20563;-70
2022/12/25 06:28:02;;;;;;;2.63;2.35;;;10.40;97.20;;;;;;1707969;29;20694;-70
2022/12/25 06:28:54;;;;;;;2.27;2.17;;;10.40;97.20;;;;;;1708238;29;20678;-70
2022/12/25 06:29:44;;;;;;;2.45;2.25;;;10.40;97.20;;;;;;1708088;29;20450;-70
2022/12/25 06:30:36;;;;;;;2.60;2.40;;;10.50;97.20;;;;;;1706940;29;20230;-70
2022/12/25 06:31:28;;;;;;;2.63;2.35;;;10.50;97.20;;;;;;1708108;29;20584;-70
2022/12/25 06:32:20;;;;;;;2.47;2.28;;;10.50;97.20;;;;;;1708272;29;20210;-71
2022/12/25 06:33:11;;;;;;;2.65;2.45;;;10.50;97.20;;;;;;1708056;29;20701;-70
2022/12/25 06:34:03;;;;;;;2.65;2.45;;;10.50;97.20;;;;;;1708072;29;20256;-70
2022/12/25 06:34:54;;;;;;;3.00;2.70;;;10.50;97.20;;;;;;1708130;29;20254;-70
2022/12/25 06:35:45;;;;;;;4.00;3.57;;;10.50;97.20;;;;;;1708154;29;20232;-70
2022/12/25 06:36:37;;;;;;;6.20;5.60;;;10.50;97.20;;;;;;1707985;29;20211;-71
2022/12/25 06:37:28;;;;;;;6.40;5.72;;;10.50;97.20;;;;;;1708071;29;20206;-71
2022/12/25 06:38:19;;;;;;;5.55;4.32;;;10.50;97.20;;;;;;1707922;29;20213;-70
2022/12/25 06:39:11;;;;;;;4.77;4.37;;;10.50;97.20;;;;;;1708147;29;20242;-70
2022/12/25 06:40:02;;;;;;;4.50;4.15;;;10.50;97.20;;;;;;1708058;29;20257;-70
2022/12/25 06:40:53;;;;;;;4.30;3.90;;;10.50;97.20;;;;;;1708003;29;20218;-70
2022/12/25 06:41:44;;;;;;;4.30;3.90;;;10.50;97.20;;;;;;1708015;29;20198;-71
2022/12/25 06:42:35;;;;;;;4.00;3.60;;;10.50;97.20;;;;;;1708142;29;20233;-70
2022/12/25 06:43:27;;;;;;;3.37;3.07;;;10.50;97.20;;;;;;1707973;29;20198;-71
2022/12/25 06:44:17;;;;;;;4.35;3.83;;;10.50;97.20;;;;;;1708116;29;20210;-70
2022/12/25 06:45:10;;;;;;;4.97;3.60;;;10.50;97.20;;;;;;1707976;28;20202;-70
2022/12/25 06:46:02;;;;;;;3.50;3.20;;;10.50;97.20;;;;;;1707935;29;20217;-70
2022/12/25 06:46:55;;;;;;;4.30;3.90;;;10.50;97.20;;;;;;1707388;29;20589;-70
2022/12/25 06:47:46;;;;;;;4.25;3.80;;;10.50;97.20;;;;;;1708026;29;20213;-70
2022/12/25 06:48:40;;;;;;;4.93;4.27;;;10.50;97.20;;;;;;1707983;29;20202;-69
2022/12/25 06:49:31;;;;;;;11.05;6.22;;;10.50;97.20;;;;;;1708030;29;20206;-70
2022/12/25 06:50:22;;;;;;;7.97;4.80;;;10.50;97.20;;;;;;1707815;29;20317;-70
2022/12/25 06:51:13;;;;;;;8.20;5.50;;;10.50;97.20;;;;;;1708141;29;20214;-69
2022/12/25 06:52:05;;;;;;;8.52;5.43;;;10.50;97.20;;;;;;1707907;29;20195;-70
2022/12/25 06:52:56;;;;;;;7.50;5.47;;;10.50;97.20;;;;;;1707930;29;20198;-70
2022/12/25 06:53:49;;;;;;;7.23;5.03;;;10.50;97.20;;;;;;1707895;29;20209;-70
2022/12/25 06:54:40;;;;;;;8.73;5.88;;;10.50;97.20;;;;;;1707861;29;20457;-70
2022/12/25 06:55:31;;;;;;;5.97;5.00;;;10.50;97.20;;;;;;1708111;29;20210;-70
2022/12/25 06:56:24;;;;;;;6.38;5.20;;;10.50;97.20;;;;;;1707857;29;20586;-69
2022/12/25 06:57:17;;;;;;;5.18;4.68;;;10.50;97.20;;;;;;1707013;29;20462;-70
2022/12/25 06:58:08;;;;;;;7.07;5.00;;;10.50;97.20;;;;;;1707917;29;20210;-69
2022/12/25 06:59:01;;;;;;;7.93;5.27;;;10.50;97.20;;;;;;1707936;29;20203;-69
2022/12/25 06:59:52;;;;;;;5.75;5.05;;;10.50;97.20;;;;;;1708085;29;20669;-69
2022/12/25 07:00:43;;;;;;;4.57;3.93;;;10.50;97.20;;;;;;1707846;29;20700;-69
2022/12/25 07:01:37;;;;;;;5.70;4.45;;;10.50;97.20;;;;;;1707933;29;20210;-69
2022/12/25 07:02:32;;;;;;;8.60;4.20;;;10.50;97.20;;;;;;1707987;29;20657;-69
2022/12/25 07:03:24;;;;;;;5.18;4.50;;;10.50;97.20;;;;;;1707932;29;20210;-69
2022/12/25 07:04:19;;;;;;;4.75;3.70;;;10.50;97.20;;;;;;1707998;29;20703;-68
2022/12/25 07:05:10;;;;;;;5.60;4.13;;;10.50;97.20;;;;;;1707974;29;20203;-68
2022/12/25 07:06:02;;;;;;;4.93;3.47;;;10.50;97.20;;;;;;1707877;29;20202;-68
2022/12/25 07:06:52;;;;;;;3.95;3.65;;;10.50;97.20;;;;;;1707213;29;20207;-68
2022/12/25 07:07:44;;;;;;;5.97;3.80;;;10.50;97.20;;;;;;1707747;29;20228;-69
2022/12/25 07:08:35;;;;;;;4.10;3.47;;;10.60;97.20;;;;;;1707895;29;20234;-69
2022/12/25 07:09:26;;;;;;;3.80;3.40;;;10.50;97.20;;;;;;1707869;29;20202;-69
2022/12/25 07:10:17;;;;;;;3.95;3.40;;;10.60;97.20;;;;;;1707879;29;20593;-70
2022/12/25 07:11:09;;;;;;;3.83;3.20;;;10.60;97.20;;;;;;1707837;29;20253;-69
2022/12/25 07:12:03;;;;;;;4.80;3.42;;;10.60;97.20;;;;;;1707866;29;20240;-69
2022/12/25 07:12:54;;;;;;;3.92;3.63;;;10.60;97.20;;;;;;1707959;29;20233;-69
2022/12/25 07:13:45;;;;;;;3.88;3.58;;;10.60;97.20;;;;;;1707816;29;20589;-69
2022/12/25 07:14:37;;;;;;;3.90;3.50;;;10.60;97.20;;;;;;1708025;29;20228;-69
2022/12/25 07:15:28;;;;;;;3.50;3.13;;;10.60;97.20;;;;;;1707768;29;20446;-69
2022/12/25 07:16:19;;;;;;;3.93;3.63;;;10.60;97.20;;;;;;1707916;29;20210;-69
2022/12/25 07:17:10;;;;;;;3.33;3.03;;;10.50;97.20;;;;;;1707120;29;20206;-69
2022/12/25 07:18:03;;;;;;;3.10;2.87;;;10.60;97.20;;;;;;1707706;29;20211;-69
2022/12/25 07:18:54;;;;;;;3.70;3.40;;;10.50;97.20;;;;;;1707928;29;20210;-70
2022/12/25 07:19:46;;;;;;;3.33;3.07;;;10.50;97.20;;;;;;1707083;29;20842;-69
2022/12/25 07:20:37;;;;;;;3.45;3.13;;;10.50;97.20;;;;;;1707009;29;20234;-69
2022/12/25 07:21:29;;;;;;;3.03;2.83;;;10.50;97.20;;;;;;1707914;29;20213;-69
2022/12/25 07:22:19;;;;;;;4.70;2.90;;;10.50;97.20;;;;;;1701247;29;20215;-69
2022/12/25 07:23:11;;;;;;;3.10;2.90;;;10.50;97.20;;;;;;1701416;29;20229;-69
2022/12/25 07:24:03;;;;;;;3.10;2.80;;;10.50;97.20;;;;;;1701136;29;20207;-69
2022/12/25 07:24:55;;;;;;;2.90;2.70;;;10.50;97.20;;;;;;1701286;29;20199;-69
2022/12/25 07:25:52;;;;;;;2.83;2.63;;;10.50;97.20;;;;;;1702851;29;20290;-69
2022/12/25 07:26:44;;;;;;;3.15;2.90;;;10.50;97.20;;;;;;1707157;29;20210;-69
2022/12/25 07:27:34;;;;;;;3.33;3.03;;;10.50;97.20;;;;;;1707913;29;20209;-68
2022/12/25 07:28:26;;;;;;;2.73;2.53;;;10.60;97.20;;;;;;1707642;29;20203;-69
2022/12/25 07:29:18;;;;;;;3.33;3.13;;;10.60;97.20;;;;;;1707824;29;20210;-69
2022/12/25 07:30:10;;;;;;;3.30;3.08;;;10.60;97.20;;;;;;1707877;29;20241;-69
2022/12/25 07:31:03;;;;;;;3.45;3.15;;;10.60;97.20;;;;;;1707577;29;20630;-69
2022/12/25 07:31:53;;;;;;;4.35;3.67;;;10.60;97.20;;;;;;1707978;29;20233;-69
2022/12/25 07:32:45;;;;;;;8.97;8.27;;;10.60;97.20;;;;;;1707892;29;20194;-69
2022/12/25 07:33:37;;;;;;;12.63;11.63;;;10.60;97.20;;;;;;1707747;29;20245;-69
2022/12/25 07:34:29;;;;;;;13.75;12.65;;;10.60;97.20;;;;;;1707856;29;20264;-68
2022/12/25 07:35:20;;;;;;;13.90;12.80;;;10.50;97.20;;;;;;1707625;29;20207;-68
2022/12/25 07:36:12;;;;;;;12.43;11.43;;;10.50;97.20;;;;;;1707907;29;20216;-69
2022/12/25 07:37:03;;;;;;;7.47;6.97;;;10.50;97.20;;;;;;1706937;29;20210;-70
2022/12/25 07:37:55;;;;;;;8.77;8.03;;;10.50;97.20;;;;;;1707540;29;20213;-69
2022/12/25 07:38:48;;;;;;;10.85;10.05;;;10.50;97.20;;;;;;1704997;29;20221;-69
2022/12/25 07:39:40;;;;;;;7.97;7.28;;;10.50;97.20;;;;;;1703613;29;20783;-69
2022/12/25 07:40:31;;;;;;;7.97;7.38;;;10.50;97.20;;;;;;1701150;29;20317;-69
2022/12/25 07:41:23;;;;;;;8.67;7.87;;;10.50;97.20;;;;;;1701008;29;20254;-69
2022/12/25 07:42:13;;;;;;;5.80;5.30;;;10.50;97.20;;;;;;1701227;29;20214;-69
2022/12/25 07:43:04;;;;;;;5.60;5.20;;;10.50;97.20;;;;;;1701126;29;20657;-69
2022/12/25 07:43:56;;;;;;;4.67;4.27;;;10.50;97.20;;;;;;1701200;29;20466;-69
2022/12/25 07:44:47;;;;;;;4.40;4.10;;;10.60;97.20;;;;;;1700785;29;20203;-69
2022/12/25 07:45:38;;;;;;;4.80;4.40;;;10.50;97.20;;;;;;1701054;28;20213;-69
2022/12/25 07:46:29;;;;;;;3.97;3.67;;;10.60;97.20;;;;;;1704522;29;20715;-69
2022/12/25 07:47:21;;;;;;;4.77;4.40;;;10.60;97.20;;;;;;1706954;29;20665;-69
2022/12/25 07:48:12;;;;;;;4.47;4.07;;;10.60;97.20;;;;;;1706574;29;20217;-69
2022/12/25 07:49:05;;;;;;;5.07;4.77;;;10.60;97.20;;;;;;1707170;29;20209;-69
2022/12/25 07:49:56;;;;;;;5.25;4.85;;;10.60;97.20;;;;;;1707721;29;20453;-69
2022/12/25 07:50:47;;;;;;;5.87;5.37;;;10.60;97.20;;;;;;1707615;29;20307;-69
2022/12/25 07:51:38;;;;;;;6.20;5.70;;;10.70;97.20;;;;;;1706986;29;20205;-69
2022/12/25 07:52:30;;;;;;;5.90;5.40;;;10.60;97.20;;;;;;1701090;29;20210;-69
2022/12/25 07:53:20;;;;;;;5.13;4.70;;;10.70;97.20;;;;;;1700953;29;20243;-69
2022/12/25 07:54:12;;;;;;;5.07;4.70;;;10.70;97.20;;;;;;1701130;29;20203;-69
2022/12/25 07:55:03;;;;;;;5.07;4.55;;;10.70;97.20;;;;;;1701064;29;20661;-68
2022/12/25 07:55:59;;;;;;;4.25;3.95;;;10.70;97.20;;;;;;1700973;29;20218;-69
2022/12/25 07:56:51;;;;;;;5.28;4.88;;;10.70;97.20;;;;;;1699912;29;20662;-69
2022/12/25 07:57:42;;;;;;;4.70;4.22;;;10.80;97.20;;;;;;1701973;29;20219;-69
2022/12/25 07:58:33;;;;;;;5.32;4.88;;;10.80;97.20;;;;;;1707689;29;20688;-69
2022/12/25 07:59:25;;;;;;;4.13;3.83;;;10.80;97.20;;;;;;1707490;29;20597;-69
2022/12/25 08:00:17;;;;;;;5.18;3.83;;;10.80;97.20;;;;;;1707520;29;20454;-69
2022/12/25 08:01:12;;;;;;;4.43;3.50;;;10.80;97.20;;;;;;1706802;29;20234;-69
2022/12/25 08:02:02;;;;;;;3.33;3.10;;;10.80;97.20;;;;;;1705280;29;20668;-69
2022/12/25 08:02:54;;;;;;;3.97;3.10;;;10.80;97.20;;;;;;1705544;29;20626;-69
2022/12/25 08:03:48;;;;;;;2.80;2.60;;;10.80;97.20;;;;;;1705564;29;20598;-69
2022/12/25 08:04:41;;;;;;;2.53;2.33;;;10.80;97.20;;;;;;1705455;29;20198;-68
2022/12/25 08:05:32;;;;;;;3.28;2.70;;;10.80;97.20;;;;;;1705387;29;20588;-68
2022/12/25 08:06:28;;;;;;;3.10;2.80;;;10.80;97.20;;;;;;1705255;29;20560;-68
2022/12/25 08:07:19;;;;;;;2.38;2.22;;;10.90;97.20;;;;;;1704824;29;20265;-68
2022/12/25 08:08:10;;;;;;;2.80;2.60;;;10.90;97.20;;;;;;1706714;29;20254;-68
2022/12/25 08:09:04;;;;;;;2.78;2.53;;;10.90;97.20;;;;;;1700894;29;20207;-68
2022/12/25 08:09:56;;;;;;;2.58;1.95;;;10.90;97.20;;;;;;1703986;29;20307;-68
2022/12/25 08:10:47;;;;;;;3.35;2.58;;;11.00;97.20;;;;;;1707389;28;20230;-68
2022/12/25 08:11:39;;;;;;;2.55;2.35;;;11.00;97.20;;;;;;1707553;29;20199;-68
2022/12/25 08:12:30;;;;;;;3.67;2.65;;;11.00;97.20;;;;;;1707491;29;20241;-68
2022/12/25 08:13:22;;;;;;;2.50;2.30;;;11.10;97.20;;;;;;1707493;29;20281;-68
2022/12/25 08:14:13;;;;;;;2.85;2.65;;;11.10;97.20;;;;;;1707573;29;20557;-68
2022/12/25 08:15:05;;;;;;;3.00;2.30;;;11.10;97.20;;;;;;1707501;29;20445;-68
2022/12/25 08:15:57;;;;;;;3.30;3.00;;;11.20;97.20;;;;;;1707549;29;20453;-69
2022/12/25 08:16:49;;;;;;;2.92;2.72;;;11.20;97.20;;;;;;1706843;29;20237;-69
2022/12/25 08:17:39;;;;;;;3.45;3.15;;;11.20;97.20;;;;;;1707280;29;20262;-68
2022/12/25 08:18:32;;;;;;;3.73;3.30;;;11.30;97.20;;;;;;1707255;29;20206;-68
2022/12/25 08:19:22;;;;;;;3.78;3.40;;;11.30;97.20;;;;;;1707389;29;20207;-69
2022/12/25 08:20:16;;;;;;;5.57;4.67;;;11.30;97.20;;;;;;1707469;29;20207;-68
2022/12/25 08:21:09;;;;;;;5.00;4.60;;;11.40;97.20;;;;;;1707495;29;20442;-68
2022/12/25 08:22:01;;;;;;;5.40;4.90;;;11.40;97.20;;;;;;1707505;29;20371;-68
2022/12/25 08:22:51;;;;;;;6.60;6.10;;;11.40;97.20;;;;;;1707459;29;20560;-68
2022/12/25 08:23:45;;;;;;;6.60;6.10;;;11.50;97.20;;;;;;1707462;29;20224;-68
2022/12/25 08:24:36;;;;;;;8.43;7.72;;;11.50;97.20;;;;;;1707491;29;20559;-68
2022/12/25 08:25:27;;;;;;;7.37;6.67;;;11.50;97.20;;;;;;1707423;29;20672;-68
2022/12/25 08:26:20;;;;;;;7.35;6.72;;;11.60;97.20;;;;;;1702978;29;20199;-68
2022/12/25 08:27:12;;;;;;;7.65;6.90;;;11.60;97.20;;;;;;1700012;29;20207;-68
2022/12/25 08:28:03;;;;;;;8.32;7.63;;;11.70;97.20;;;;;;1700691;29;20195;-68
2022/12/25 08:28:55;;;;;;;8.00;7.20;;;11.70;97.20;;;;;;1701011;29;20203;-68
2022/12/25 08:29:46;;;;;;;8.00;7.30;;;11.80;97.20;;;;;;1700828;29;20207;-68
2022/12/25 08:30:38;;;;;;;8.40;7.70;;;11.80;97.20;;;;;;1700653;29;20237;-69
2022/12/25 08:31:30;;;;;;;6.95;6.35;;;11.90;97.20;;;;;;1700706;29;20217;-68
2022/12/25 08:32:21;;;;;;;7.45;6.85;;;12.10;97.20;;;;;;1700724;29;20292;-69
2022/12/25 08:33:12;;;;;;;6.05;5.55;;;12.20;97.20;;;;;;1700906;29;20692;-68
2022/12/25 08:34:04;;;;;;;5.30;4.80;;;12.40;97.20;;;;;;1700607;29;20583;-68
2022/12/25 08:34:55;;;;;;;5.68;5.18;;;12.70;97.20;;;;;;1700679;29;20226;-69
2022/12/25 08:35:48;;;;;;;5.90;5.40;;;13.20;97.20;;;;;;1700721;29;20202;-69
2022/12/25 08:36:39;;;;;;;6.32;5.72;;;14.00;97.20;;;;;;1700025;29;20262;-69
2022/12/25 08:37:30;;;;;;;6.03;5.45;;;14.90;97.20;;;;;;1700710;29;20238;-69
2022/12/25 08:38:21;;;;;;;5.75;5.30;;;15.90;97.20;;;;;;1703467;29;20589;-69
2022/12/25 08:39:13;;;;;;;6.13;5.63;;;16.70;97.20;;;;;;1705354;29;20570;-68
2022/12/25 08:40:05;;;;;;;5.43;4.90;;;17.60;97.20;;;;;;1705212;29;20203;-69
2022/12/25 08:40:57;;;;;;;5.20;4.70;;;18.30;97.20;;;;;;1704859;29;20229;-69
2022/12/25 08:41:47;;;;;;;5.60;5.00;;;18.80;97.20;;;;;;1705265;29;20198;-69
2022/12/25 08:42:39;;;;;;;4.43;4.03;;;19.20;97.20;;;;;;1707074;29;20198;-69
2022/12/25 08:43:30;;;;;;;3.00;2.80;;;19.40;97.20;;;;;;1707389;29;20206;-69
2022/12/25 08:44:22;;;;;;;3.13;2.83;;;19.50;97.20;;;;;;1702706;29;20203;-69
2022/12/25 08:45:13;;;;;;;2.78;2.58;;;19.60;97.20;;;;;;1700941;29;20455;-69
2022/12/25 08:46:05;;;;;;;2.80;2.60;;;19.60;97.20;;;;;;1700639;29;20203;-68
2022/12/25 08:46:56;;;;;;;2.80;2.60;;;19.80;97.20;;;;;;1703706;29;20454;-70
2022/12/25 08:47:48;;;;;;;3.10;2.63;;;19.90;97.20;;;;;;1705662;29;20211;-69
2022/12/25 08:48:41;;;;;;;3.00;2.80;;;20.20;97.20;;;;;;1705043;29;20265;-70
2022/12/25 08:49:32;;;;;;;3.35;3.00;;;20.30;97.20;;;;;;1705270;29;20201;-69
2022/12/25 08:50:24;;;;;;;2.70;2.50;;;20.30;97.20;;;;;;1704766;29;20576;-69
2022/12/25 08:51:19;;;;;;;4.57;3.13;;;20.30;97.20;;;;;;1705399;29;20206;-69
2022/12/25 08:52:10;;;;;;;3.42;2.40;;;20.30;97.20;;;;;;1705495;29;20432;-69
2022/12/25 08:53:02;;;;;;;2.50;2.30;;;20.30;97.20;;;;;;1707345;29;20205;-69
2022/12/25 08:53:58;;;;;;;2.55;2.20;;;20.20;97.20;;;;;;1706134;29;20202;-68
2022/12/25 08:54:49;;;;;;;2.55;2.35;;;20.10;97.20;;;;;;1705320;29;20744;-68
2022/12/25 08:55:41;;;;;;;3.08;2.50;;;20.00;97.20;;;;;;1705039;29;20217;-68
2022/12/25 08:56:34;;;;;;;2.70;2.38;;;19.80;97.20;;;;;;1706252;29;20607;-68
2022/12/25 08:57:25;;;;;;;2.40;2.20;;;19.70;97.20;;;;;;1704552;29;20210;-69
2022/12/25 08:58:17;;;;;;;3.00;2.00;;;19.50;97.20;;;;;;1705097;29;20257;-71
2022/12/25 08:59:08;;;;;;;2.03;1.83;;;19.40;97.20;;;;;;1705195;29;20711;-68
2022/12/25 09:00:00;;;;;;;2.13;1.97;;;19.20;97.20;;;;;;1705800;29;20902;-69
2022/12/25 09:00:50;;;;;;;1.60;1.50;;;19.10;97.20;;;;;;1705082;29;20250;-69
2022/12/25 09:01:42;;;;;;;2.63;2.00;;;19.00;97.20;;;;;;1705203;29;20201;-68
2022/12/25 09:02:33;;;;;;;1.80;1.70;;;19.00;97.20;;;;;;1705734;29;20201;-69
2022/12/25 09:03:25;;;;;;;2.57;1.80;;;19.10;97.20;;;;;;1705333;29;20202;-69
2022/12/25 09:04:15;;;;;;;1.60;1.42;;;19.30;97.20;;;;;;1705249;29;20202;-69
2022/12/25 09:05:08;;;;;;;2.20;1.90;;;19.60;97.20;;;;;;1705251;29;21572;-69
2022/12/25 09:06:02;;;;;;;2.13;1.92;;;19.90;97.20;;;;;;1704714;29;20206;-69
2022/12/25 09:06:55;;;;;;;2.70;2.30;;;20.50;97.20;;;;;;1705012;29;20205;-69
2022/12/25 09:07:45;;;;;;;2.75;2.20;;;21.10;97.20;;;;;;1705303;29;20202;-69
2022/12/25 09:08:38;;;;;;;1.83;1.70;;;21.70;97.20;;;;;;1704490;28;20202;-69
2022/12/25 09:09:29;;;;;;;2.08;1.85;;;22.20;97.20;;;;;;1704709;29;20604;-69
2022/12/25 09:10:20;;;;;;;2.67;2.47;;;22.80;97.20;;;;;;1704799;29;20206;-69
2022/12/25 09:11:13;;;;;;;2.60;2.40;;;23.20;97.20;;;;;;1704888;29;20450;-69
2022/12/25 09:12:05;;;;;;;2.60;2.40;;;23.60;97.20;;;;;;1704929;29;20269;-69
2022/12/25 09:12:56;;;;;;;2.30;2.10;;;24.00;97.20;;;;;;1705528;29;20209;-69
2022/12/25 09:13:48;;;;;;;2.70;2.50;;;24.20;97.20;;;;;;1705306;29;20206;-69
2022/12/25 09:14:39;;;;;;;3.33;3.13;;;24.20;97.20;;;;;;1704870;29;20202;-69
2022/12/25 09:15:31;;;;;;;3.20;3.00;;;24.20;97.20;;;;;;1705018;29;20206;-69
2022/12/25 09:16:22;;;;;;;3.90;3.58;;;24.30;97.20;;;;;;1704739;29;20454;-69
2022/12/25 09:17:13;;;;;;;3.40;3.10;;;24.40;97.20;;;;;;1701337;29;20202;-69
2022/12/25 09:18:04;;;;;;;3.35;3.05;;;24.80;97.20;;;;;;1703720;28;20210;-69
2022/12/25 09:18:57;;;;;;;3.10;2.90;;;25.50;97.20;;;;;;1704481;28;20217;-69
2022/12/25 09:19:47;;;;;;;3.58;3.30;;;26.30;97.20;;;;;;1706140;28;20210;-69
2022/12/25 09:20:39;;;;;;;2.60;2.40;;;26.80;97.20;;;;;;1704751;28;20249;-69
2022/12/25 09:21:30;;;;;;;2.30;2.10;;;27.50;97.20;;;;;;1704646;28;20198;-69
2022/12/25 09:22:23;;;;;;;1.83;1.73;;;28.00;97.20;;;;;;1704572;28;20190;-69
2022/12/25 09:23:14;;;;;;;3.20;2.03;;;28.50;97.20;;;;;;1704635;29;20979;-69
2022/12/25 09:24:06;;;;;;;2.10;1.57;;;28.70;97.20;;;;;;1704821;29;21931;-69
2022/12/25 09:24:57;;;;;;;1.20;1.10;;;28.80;97.20;;;;;;1704416;29;20198;-69
2022/12/25 09:25:48;;;;;;;1.83;1.30;;;28.70;97.20;;;;;;1704319;29;20198;-69
2022/12/25 09:26:40;;;;;;;1.63;1.40;;;28.80;97.20;;;;;;1701815;29;20234;-69
2022/12/25 09:27:32;;;;;;;1.35;1.13;;;28.80;97.20;;;;;;1704373;29;20241;-69
2022/12/25 09:28:22;;;;;;;1.30;1.20;;;28.90;97.20;;;;;;1704527;29;20944;-69
2022/12/25 09:29:16;;;;;;;1.70;1.10;;;28.90;97.20;;;;;;1703939;29;20706;-69
2022/12/25 09:30:08;;;;;;;1.13;1.02;;;28.90;97.20;;;;;;1704450;29;20210;-69
2022/12/25 09:31:00;;;;;;;1.55;1.23;;;29.00;97.20;;;;;;1704828;29;20288;-69
2022/12/25 09:31:50;;;;;;;1.23;1.13;;;29.20;97.20;;;;;;1705000;29;20711;-70
2022/12/25 09:32:42;;;;;;;2.23;1.40;;;29.40;97.20;;;;;;1705486;29;20633;-69
2022/12/25 09:33:33;;;;;;;2.20;1.30;;;29.70;97.20;;;;;;1703874;29;20221;-70
2022/12/25 09:34:25;;;;;;;1.37;1.27;;;30.00;97.20;;;;;;1703819;29;20195;-69
2022/12/25 09:35:17;;;;;;;1.40;1.30;;;30.40;97.20;;;;;;1704329;29;20473;-69
2022/12/25 09:36:10;;;;;;;1.35;1.10;;;30.80;97.20;;;;;;1704993;29;20208;-69
2022/12/25 09:37:01;;;;;;;1.83;1.67;;;31.00;97.20;;;;;;1704068;29;20205;-69
2022/12/25 09:37:54;;;;;;;1.90;1.60;;;31.20;97.20;;;;;;1704862;29;20205;-71
2022/12/25 09:38:45;;;;;;;1.52;1.33;;;31.50;97.20;;;;;;1703109;29;20953;-69
2022/12/25 09:39:36;;;;;;;2.10;1.70;;;31.90;96.90;;;;;;1707090;29;20547;-70
2022/12/25 09:40:29;;;;;;;2.95;2.08;;;32.30;96.20;;;;;;1706839;29;20574;-70
2022/12/25 09:41:27;;;;;;;3.40;3.00;;;32.80;95.30;;;;;;1706998;29;20225;-70
2022/12/25 09:42:21;;;;;;;2.60;2.40;;;33.40;93.50;;;;;;1706993;29;20253;-70
2022/12/25 09:43:17;;;;;;;2.95;2.65;;;33.90;92.50;;;;;;1707192;29;20289;-70
2022/12/25 09:44:11;;;;;;;4.75;3.30;;;34.20;91.00;;;;;;1705148;29;20202;-70
2022/12/25 09:45:09;;;;;;;5.15;3.50;;;34.60;90.50;;;;;;1700478;29;20675;-70
2022/12/25 09:46:02;;;;;;;2.28;1.65;;;35.10;89.70;;;;;;1700469;29;20246;-70
2022/12/25 09:46:58;;;;;;;3.85;2.85;;;35.60;88.40;;;;;;1699892;29;20227;-70
2022/12/25 09:47:57;;;;;;;2.60;2.33;;;36.00;87.70;;;;;;1700413;29;20191;-70
2022/12/25 09:48:57;;;;;;;3.38;2.50;;;36.40;86.40;;;;;;1700533;29;20202;-70
2022/12/25 09:49:52;;;;;;;2.22;2.03;;;36.70;85.50;;;;;;1700614;29;20207;-70
2022/12/25 09:50:48;;;;;;;3.25;1.80;;;37.10;85.20;;;;;;1700212;29;20219;-70
2022/12/25 09:51:41;;;;;;;2.05;1.70;;;37.50;84.40;;;;;;1700560;29;20203;-70
2022/12/25 09:52:40;;;;;;;3.28;2.65;;;37.80;84.00;;;;;;1700451;29;20207;-70
2022/12/25 09:53:36;;;;;;;2.33;2.13;;;38.00;83.30;;;;;;1700477;29;20207;-70
2022/12/25 09:54:39;;;;;;;2.80;2.08;;;38.30;82.50;;;;;;1700563;29;20192;-69
2022/12/25 09:55:33;;;;;;;3.05;2.38;;;38.60;81.70;;;;;;1700423;29;20557;-69
2022/12/25 09:56:25;;;;;;;2.92;1.90;;;38.50;81.30;;;;;;1703267;29;20617;-69
2022/12/25 09:57:16;;;;;;;2.25;2.03;;;38.60;81.10;;;;;;1706337;29;20215;-69
2022/12/25 09:58:12;;;;;;;4.17;1.90;;;38.80;80.50;;;;;;1706864;29;20203;-70
2022/12/25 09:59:02;;;;;;;3.03;2.50;;;39.00;79.90;;;;;;1706921;28;20202;-70
2022/12/25 09:59:55;;;;;;;3.00;2.27;;;39.20;79.30;;;;;;1707131;29;20653;-70
2022/12/25 10:00:53;;;;;;;8.00;5.35;;;39.50;79.00;;;;;;1706933;29;20631;-70
2022/12/25 10:02:01;;;;;;;3.75;2.92;;;39.70;78.50;;;;;;1706886;28;20299;-69
2022/12/25 10:03:11;;;;;;;2.58;2.13;;;40.00;77.50;;;;;;1707117;29;20195;-70
2022/12/25 10:04:27;;;;;;;2.38;2.00;;;40.30;77.10;;;;;;1706960;29;20199;-70
2022/12/25 10:05:34;;;;;;;3.17;2.63;;;40.30;76.90;;;;;;1707003;29;20218;-70
2022/12/25 10:06:35;;;;;;;3.17;2.33;;;40.50;76.90;;;;;;1706900;29;20218;-74
2022/12/25 10:07:39;;;;;;;2.25;1.90;;;40.80;76.50;;;;;;1706527;29;20191;-71
2022/12/25 10:09:04;;;;;;;2.92;1.70;;;41.10;76.10;;;;;;1713819;29;20171;-70
2022/12/25 10:10:12;;;;;;;4.75;2.67;;;41.20;74.80;;;;;;1709701;29;20272;-70
2022/12/25 10:11:16;;;;;;;1.83;1.73;;;41.60;74.70;;;;;;1710739;28;20293;-70
2022/12/25 10:12:33;;;;;;;2.55;2.03;;;42.00;74.40;;;;;;1714111;28;20269;-71
2022/12/25 10:13:45;;;;;;;4.70;2.70;;;42.30;73.10;;;;;;1712702;28;20206;-71
2022/12/25 10:14:46;;;;;;;3.17;2.53;;;42.70;72.60;;;;;;1713740;29;20199;-70
2022/12/25 10:15:58;;;;;;;2.38;2.05;;;43.00;72.40;;;;;;1714338;28;20214;-70
2022/12/25 10:17:11;;;;;;;3.28;2.60;;;43.30;71.30;;;;;;1713865;28;20191;-70
2022/12/25 10:18:44;;;;;;;2.90;2.70;;;43.60;70.90;;;;;;1714257;28;20198;-71
2022/12/25 10:19:48;;;;;;;2.70;2.50;;;43.90;70.00;;;;;;1710516;28;20207;-70
2022/12/25 10:20:47;;;;;;;2.65;2.40;;;44.20;70.00;;;;;;1714755;28;20323;-70
2022/12/25 10:21:41;;;;;;;3.70;2.40;;;44.40;69.80;;;;;;1715253;28;20213;-70
2022/12/25 10:22:39;;;;;;;3.08;2.75;;;44.50;69.60;;;;;;1715557;28;20226;-71
2022/12/25 10:23:35;;;;;;;2.40;2.20;;;44.70;69.00;;;;;;1714528;28;20203;-70
2022/12/25 10:24:32;;;;;;;2.53;2.30;;;44.50;68.70;;;;;;1708700;28;20211;-70
2022/12/25 10:25:32;;;;;;;4.33;2.33;;;44.40;68.70;;;;;;1708824;29;20480;-70
2022/12/25 10:26:25;;;;;;;2.73;2.03;;;44.20;68.80;;;;;;1709046;28;20443;-70
2022/12/25 10:27:20;;;;;;;2.70;2.50;;;43.90;69.00;;;;;;1708318;28;20454;-70
2022/12/25 10:28:14;;;;;;;3.22;2.28;;;43.60;69.00;;;;;;1704676;29;20455;-71
2022/12/25 10:29:12;;;;;;;3.10;2.20;;;43.10;69.30;;;;;;1702647;29;20569;-71
2022/12/25 10:30:13;;;;;;;2.47;2.27;;;42.70;69.60;;;;;;1702756;29;20941;-70
2022/12/25 10:31:17;;;;;;;3.07;2.50;;;42.10;69.90;;;;;;1703654;29;20982;-71
2022/12/25 10:32:09;;;;;;;2.40;2.20;;;41.50;70.60;;;;;;1703084;29;20942;-70
2022/12/25 10:33:01;;;;;;;2.47;2.27;;;41.10;71.20;;;;;;1706519;29;20477;-70
2022/12/25 10:33:53;;;;;;;3.03;2.73;;;40.70;71.50;;;;;;1709937;29;20450;-71
2022/12/25 10:34:45;;;;;;;2.43;1.90;;;40.20;71.90;;;;;;1709573;29;20446;-70
2022/12/25 10:35:37;;;;;;;2.73;1.80;;;39.70;72.30;;;;;;1709415;29;20452;-70
2022/12/25 10:36:30;;;;;;;2.72;2.50;;;39.10;73.00;;;;;;1708522;29;20445;-69